Terminal Aerodrome Forecast
Issued by NWS Wilmington, NC

Home | Current Version | Previous Version | Text Only | Print | Product List | Glossary On
Versions: 1 2 3 4 5 6 7 8 9 10 11 12 13 14
624
FTUS42 KILM 261013 AAA
TAFFLO
TAF AMD
KFLO 261013Z 2610/2706 15004KT P6SM BKN250
     FM261700 17009KT P6SM FEW035 SCT050
     FM262000 16010KT P6SM SCT035 BKN050
     FM270200 15004KT P6SM SCT250=

USA.gov is the U.S. government's official web portal to all federal, state and local government web resources and services.